sensor_id;sensor_type;location;lat;lon;timestamp;P1;durP1;ratioP1;P2;durP2;ratioP2
48629;SDS011;34426;52.180;4.462;2023-02-18T00:00:03;64.60;;;13.43;;
48629;SDS011;34426;52.180;4.462;2023-02-18T00:02:32;69.60;;;14.70;;
48629;SDS011;34426;52.180;4.462;2023-02-18T00:05:01;65.50;;;13.93;;
48629;SDS011;34426;52.180;4.462;2023-02-18T00:07:32;65.63;;;13.40;;
48629;SDS011;34426;52.180;4.462;2023-02-18T00:10:01;69.72;;;14.30;;
48629;SDS011;34426;52.180;4.462;2023-02-18T00:12:29;83.35;;;15.50;;
48629;SDS011;34426;52.180;4.462;2023-02-18T00:14:57;55.40;;;14.27;;
48629;SDS011;34426;52.180;4.462;2023-02-18T00:17:24;68.68;;;17.20;;
48629;SDS011;34426;52.180;4.462;2023-02-18T00:19:53;70.80;;;16.77;;
48629;SDS011;34426;52.180;4.462;2023-02-18T00:22:22;64.78;;;16.67;;
48629;SDS011;34426;52.180;4.462;2023-02-18T00:24:51;73.40;;;19.52;;
48629;SDS011;34426;52.180;4.462;2023-02-18T00:27:18;60.72;;;18.85;;
48629;SDS011;34426;52.180;4.462;2023-02-18T00:29:45;67.63;;;21.23;;
48629;SDS011;34426;52.180;4.462;2023-02-18T00:32:12;69.18;;;23.05;;
48629;SDS011;34426;52.180;4.462;2023-02-18T00:34:40;75.60;;;23.67;;
48629;SDS011;34426;52.180;4.462;2023-02-18T00:37:08;67.80;;;24.40;;
48629;SDS011;34426;52.180;4.462;2023-02-18T00:39:38;66.85;;;24.55;;
48629;SDS011;34426;52.180;4.462;2023-02-18T00:42:05;71.38;;;27.67;;
48629;SDS011;34426;52.180;4.462;2023-02-18T00:44:33;64.30;;;28.63;;
48629;SDS011;34426;52.180;4.462;2023-02-18T00:47:00;74.18;;;29.13;;
48629;SDS011;34426;52.180;4.462;2023-02-18T00:49:29;69.38;;;28.77;;
48629;SDS011;34426;52.180;4.462;2023-02-18T00:51:57;77.38;;;29.85;;
48629;SDS011;34426;52.180;4.462;2023-02-18T00:54:26;67.82;;;29.90;;
48629;SDS011;34426;52.180;4.462;2023-02-18T00:56:56;66.30;;;30.15;;
48629;SDS011;34426;52.180;4.462;2023-02-18T00:59:24;69.45;;;33.30;;
48629;SDS011;34426;52.180;4.462;2023-02-18T01:01:52;68.95;;;31.77;;
48629;SDS011;34426;52.180;4.462;2023-02-18T01:04:19;70.47;;;32.15;;
48629;SDS011;34426;52.180;4.462;2023-02-18T01:06:47;62.33;;;31.05;;
48629;SDS011;34426;52.180;4.462;2023-02-18T01:09:15;60.88;;;32.60;;
48629;SDS011;34426;52.180;4.462;2023-02-18T01:11:42;64.38;;;32.90;;
48629;SDS011;34426;52.180;4.462;2023-02-18T01:14:11;67.22;;;32.90;;
48629;SDS011;34426;52.180;4.462;2023-02-18T01:16:39;65.45;;;34.92;;
48629;SDS011;34426;52.180;4.462;2023-02-18T01:19:06;71.60;;;35.95;;
48629;SDS011;34426;52.180;4.462;2023-02-18T01:21:34;71.38;;;33.83;;
48629;SDS011;34426;52.180;4.462;2023-02-18T01:24:01;67.03;;;34.08;;
48629;SDS011;34426;52.180;4.462;2023-02-18T01:26:29;65.47;;;33.70;;
48629;SDS011;34426;52.180;4.462;2023-02-18T01:28:56;61.13;;;33.00;;
48629;SDS011;34426;52.180;4.462;2023-02-18T01:31:26;78.45;;;35.60;;
48629;SDS011;34426;52.180;4.462;2023-02-18T01:33:53;68.60;;;32.95;;
48629;SDS011;34426;52.180;4.462;2023-02-18T01:36:21;71.55;;;33.95;;
48629;SDS011;34426;52.180;4.462;2023-02-18T01:38:49;65.70;;;33.78;;
48629;SDS011;34426;52.180;4.462;2023-02-18T01:41:16;66.13;;;31.73;;
48629;SDS011;34426;52.180;4.462;2023-02-18T01:43:44;70.60;;;30.60;;
48629;SDS011;34426;52.180;4.462;2023-02-18T01:46:16;62.72;;;32.20;;
48629;SDS011;34426;52.180;4.462;2023-02-18T01:48:47;68.43;;;32.50;;
48629;SDS011;34426;52.180;4.462;2023-02-18T01:51:19;73.38;;;31.88;;
48629;SDS011;34426;52.180;4.462;2023-02-18T01:53:51;64.72;;;31.02;;
48629;SDS011;34426;52.180;4.462;2023-02-18T01:56:23;65.20;;;30.75;;
48629;SDS011;34426;52.180;4.462;2023-02-18T01:58:53;56.03;;;28.98;;
48629;SDS011;34426;52.180;4.462;2023-02-18T02:01:22;66.57;;;31.98;;
48629;SDS011;34426;52.180;4.462;2023-02-18T02:03:52;61.78;;;31.40;;
48629;SDS011;34426;52.180;4.462;2023-02-18T02:06:21;62.75;;;30.15;;
48629;SDS011;34426;52.180;4.462;2023-02-18T02:08:50;68.93;;;31.60;;
48629;SDS011;34426;52.180;4.462;2023-02-18T02:11:21;68.85;;;32.42;;
48629;SDS011;34426;52.180;4.462;2023-02-18T02:14:16;64.90;;;30.48;;
48629;SDS011;34426;52.180;4.462;2023-02-18T02:16:52;62.28;;;29.67;;
48629;SDS011;34426;52.180;4.462;2023-02-18T02:22:44;51.72;;;29.17;;
48629;SDS011;34426;52.180;4.462;2023-02-18T02:25:41;54.92;;;30.85;;
48629;SDS011;34426;52.180;4.462;2023-02-18T02:28:43;52.72;;;28.10;;
48629;SDS011;34426;52.180;4.462;2023-02-18T02:34:44;46.20;;;28.30;;
48629;SDS011;34426;52.180;4.462;2023-02-18T02:37:17;49.00;;;27.35;;
48629;SDS011;34426;52.180;4.462;2023-02-18T02:39:56;43.42;;;26.50;;
48629;SDS011;34426;52.180;4.462;2023-02-18T02:42:33;41.30;;;23.98;;
48629;SDS011;34426;52.180;4.462;2023-02-18T02:45:10;46.28;;;24.02;;
48629;SDS011;34426;52.180;4.462;2023-02-18T02:47:48;41.97;;;22.20;;
48629;SDS011;34426;52.180;4.462;2023-02-18T02:50:23;44.22;;;22.83;;
48629;SDS011;34426;52.180;4.462;2023-02-18T02:52:57;45.45;;;22.80;;
48629;SDS011;34426;52.180;4.462;2023-02-18T02:55:29;41.33;;;23.58;;
48629;SDS011;34426;52.180;4.462;2023-02-18T02:57:57;48.10;;;22.75;;
48629;SDS011;34426;52.180;4.462;2023-02-18T03:00:28;43.40;;;23.33;;
48629;SDS011;34426;52.180;4.462;2023-02-18T03:03:07;42.53;;;22.80;;
48629;SDS011;34426;52.180;4.462;2023-02-18T03:06:03;39.55;;;22.85;;
48629;SDS011;34426;52.180;4.462;2023-02-18T03:08:49;35.40;;;18.90;;
48629;SDS011;34426;52.180;4.462;2023-02-18T03:11:25;29.67;;;17.73;;
48629;SDS011;34426;52.180;4.462;2023-02-18T03:14:01;29.17;;;17.70;;
48629;SDS011;34426;52.180;4.462;2023-02-18T03:16:40;24.52;;;15.50;;
48629;SDS011;34426;52.180;4.462;2023-02-18T03:19:14;28.90;;;16.92;;
48629;SDS011;34426;52.180;4.462;2023-02-18T03:21:50;28.63;;;17.42;;
48629;SDS011;34426;52.180;4.462;2023-02-18T03:24:23;27.88;;;16.77;;
48629;SDS011;34426;52.180;4.462;2023-02-18T03:26:55;32.65;;;17.55;;
48629;SDS011;34426;52.180;4.462;2023-02-18T03:29:24;38.13;;;19.95;;
48629;SDS011;34426;52.180;4.462;2023-02-18T03:31:53;34.13;;;19.17;;
48629;SDS011;34426;52.180;4.462;2023-02-18T03:34:28;35.30;;;19.42;;
48629;SDS011;34426;52.180;4.462;2023-02-18T03:36:59;40.40;;;19.23;;
48629;SDS011;34426;52.180;4.462;2023-02-18T03:39:28;38.45;;;18.98;;
48629;SDS011;34426;52.180;4.462;2023-02-18T03:41:57;45.88;;;19.80;;
48629;SDS011;34426;52.180;4.462;2023-02-18T03:44:25;39.08;;;19.70;;
48629;SDS011;34426;52.180;4.462;2023-02-18T03:46:53;45.42;;;21.25;;
48629;SDS011;34426;52.180;4.462;2023-02-18T03:49:20;48.33;;;22.95;;
48629;SDS011;34426;52.180;4.462;2023-02-18T03:51:48;47.58;;;20.88;;
48629;SDS011;34426;52.180;4.462;2023-02-18T03:54:17;41.47;;;22.20;;
48629;SDS011;34426;52.180;4.462;2023-02-18T03:56:45;49.53;;;23.08;;
48629;SDS011;34426;52.180;4.462;2023-02-18T03:59:12;43.58;;;23.80;;
48629;SDS011;34426;52.180;4.462;2023-02-18T04:01:40;45.50;;;23.70;;
48629;SDS011;34426;52.180;4.462;2023-02-18T04:04:07;50.83;;;25.65;;
48629;SDS011;34426;52.180;4.462;2023-02-18T04:06:35;57.42;;;23.45;;
48629;SDS011;34426;52.180;4.462;2023-02-18T04:09:04;49.45;;;22.35;;
48629;SDS011;34426;52.180;4.462;2023-02-18T04:11:34;53.05;;;21.65;;
48629;SDS011;34426;52.180;4.462;2023-02-18T04:14:02;54.80;;;22.20;;
48629;SDS011;34426;52.180;4.462;2023-02-18T04:16:30;62.60;;;21.90;;
48629;SDS011;34426;52.180;4.462;2023-02-18T04:18:57;53.25;;;21.10;;
48629;SDS011;34426;52.180;4.462;2023-02-18T04:21:25;48.65;;;18.77;;
48629;SDS011;34426;52.180;4.462;2023-02-18T04:23:52;48.78;;;18.88;;
48629;SDS011;34426;52.180;4.462;2023-02-18T04:26:19;51.55;;;18.08;;
48629;SDS011;34426;52.180;4.462;2023-02-18T04:28:49;48.67;;;18.05;;
48629;SDS011;34426;52.180;4.462;2023-02-18T04:31:16;54.47;;;17.27;;
48629;SDS011;34426;52.180;4.462;2023-02-18T04:33:44;49.42;;;18.20;;
48629;SDS011;34426;52.180;4.462;2023-02-18T04:36:14;52.33;;;18.30;;
48629;SDS011;34426;52.180;4.462;2023-02-18T04:38:41;49.65;;;16.50;;
48629;SDS011;34426;52.180;4.462;2023-02-18T04:41:09;45.88;;;16.08;;
48629;SDS011;34426;52.180;4.462;2023-02-18T04:43:36;47.63;;;17.83;;
48629;SDS011;34426;52.180;4.462;2023-02-18T04:46:06;55.50;;;18.73;;
48629;SDS011;34426;52.180;4.462;2023-02-18T04:48:33;40.30;;;17.48;;
48629;SDS011;34426;52.180;4.462;2023-02-18T04:51:01;52.38;;;17.85;;
48629;SDS011;34426;52.180;4.462;2023-02-18T04:53:28;45.30;;;17.23;;
48629;SDS011;34426;52.180;4.462;2023-02-18T04:55:56;46.88;;;16.92;;
48629;SDS011;34426;52.180;4.462;2023-02-18T04:58:24;47.10;;;16.67;;
48629;SDS011;34426;52.180;4.462;2023-02-18T05:00:52;44.75;;;15.60;;
48629;SDS011;34426;52.180;4.462;2023-02-18T05:03:25;48.95;;;14.80;;
48629;SDS011;34426;52.180;4.462;2023-02-18T05:05:52;41.25;;;15.68;;
48629;SDS011;34426;52.180;4.462;2023-02-18T05:08:20;36.35;;;14.60;;
48629;SDS011;34426;52.180;4.462;2023-02-18T05:10:48;44.00;;;14.52;;
48629;SDS011;34426;52.180;4.462;2023-02-18T05:13:16;45.85;;;14.18;;
48629;SDS011;34426;52.180;4.462;2023-02-18T05:15:44;49.75;;;14.68;;
48629;SDS011;34426;52.180;4.462;2023-02-18T05:18:12;42.13;;;13.50;;
48629;SDS011;34426;52.180;4.462;2023-02-18T05:20:41;45.95;;;14.13;;
48629;SDS011;34426;52.180;4.462;2023-02-18T05:23:09;49.50;;;15.68;;
48629;SDS011;34426;52.180;4.462;2023-02-18T05:25:37;41.38;;;15.50;;
48629;SDS011;34426;52.180;4.462;2023-02-18T05:28:04;41.03;;;13.95;;
48629;SDS011;34426;52.180;4.462;2023-02-18T05:30:31;40.53;;;13.18;;
48629;SDS011;34426;52.180;4.462;2023-02-18T05:32:59;41.08;;;14.05;;
48629;SDS011;34426;52.180;4.462;2023-02-18T05:35:26;37.10;;;14.93;;
48629;SDS011;34426;52.180;4.462;2023-02-18T05:37:56;35.70;;;13.52;;
48629;SDS011;34426;52.180;4.462;2023-02-18T05:40:23;32.40;;;12.95;;
48629;SDS011;34426;52.180;4.462;2023-02-18T05:42:50;30.02;;;12.88;;
48629;SDS011;34426;52.180;4.462;2023-02-18T05:45:18;35.72;;;13.48;;
48629;SDS011;34426;52.180;4.462;2023-02-18T05:47:45;34.38;;;13.85;;
48629;SDS011;34426;52.180;4.462;2023-02-18T05:50:15;43.70;;;14.73;;
48629;SDS011;34426;52.180;4.462;2023-02-18T05:52:43;36.05;;;13.27;;
48629;SDS011;34426;52.180;4.462;2023-02-18T05:55:12;42.08;;;13.38;;
48629;SDS011;34426;52.180;4.462;2023-02-18T05:57:39;38.92;;;13.55;;
48629;SDS011;34426;52.180;4.462;2023-02-18T06:00:07;39.65;;;13.23;;
48629;SDS011;34426;52.180;4.462;2023-02-18T06:02:35;37.13;;;13.63;;
48629;SDS011;34426;52.180;4.462;2023-02-18T06:05:02;39.80;;;13.32;;
48629;SDS011;34426;52.180;4.462;2023-02-18T06:07:30;41.65;;;13.90;;
48629;SDS011;34426;52.180;4.462;2023-02-18T06:09:58;40.30;;;13.05;;
48629;SDS011;34426;52.180;4.462;2023-02-18T06:12:26;37.72;;;12.95;;
48629;SDS011;34426;52.180;4.462;2023-02-18T06:14:54;42.08;;;14.55;;
48629;SDS011;34426;52.180;4.462;2023-02-18T06:17:22;44.42;;;12.73;;
48629;SDS011;34426;52.180;4.462;2023-02-18T06:19:50;43.03;;;12.27;;
48629;SDS011;34426;52.180;4.462;2023-02-18T06:22:17;61.63;;;13.43;;
48629;SDS011;34426;52.180;4.462;2023-02-18T06:24:44;48.65;;;12.40;;
48629;SDS011;34426;52.180;4.462;2023-02-18T06:27:11;50.15;;;13.30;;
48629;SDS011;34426;52.180;4.462;2023-02-18T06:29:41;47.28;;;12.02;;
48629;SDS011;34426;52.180;4.462;2023-02-18T06:32:08;52.03;;;12.45;;
48629;SDS011;34426;52.180;4.462;2023-02-18T06:34:36;59.67;;;11.75;;
48629;SDS011;34426;52.180;4.462;2023-02-18T06:37:03;54.50;;;11.88;;
48629;SDS011;34426;52.180;4.462;2023-02-18T06:39:30;56.58;;;12.50;;
48629;SDS011;34426;52.180;4.462;2023-02-18T06:41:57;51.85;;;11.05;;
48629;SDS011;34426;52.180;4.462;2023-02-18T06:44:25;49.80;;;11.75;;
48629;SDS011;34426;52.180;4.462;2023-02-18T06:46:55;44.42;;;11.30;;
48629;SDS011;34426;52.180;4.462;2023-02-18T06:49:23;52.92;;;11.35;;
48629;SDS011;34426;52.180;4.462;2023-02-18T06:51:50;53.38;;;12.18;;
48629;SDS011;34426;52.180;4.462;2023-02-18T06:54:18;56.42;;;11.73;;
48629;SDS011;34426;52.180;4.462;2023-02-18T06:56:45;51.20;;;10.27;;
48629;SDS011;34426;52.180;4.462;2023-02-18T06:59:12;43.67;;;8.50;;
48629;SDS011;34426;52.180;4.462;2023-02-18T07:01:40;55.38;;;9.77;;
48629;SDS011;34426;52.180;4.462;2023-02-18T07:04:09;45.70;;;9.52;;
48629;SDS011;34426;52.180;4.462;2023-02-18T07:06:36;46.78;;;7.72;;
48629;SDS011;34426;52.180;4.462;2023-02-18T07:09:04;48.03;;;9.38;;
48629;SDS011;34426;52.180;4.462;2023-02-18T07:11:31;58.22;;;8.75;;
48629;SDS011;34426;52.180;4.462;2023-02-18T07:13:59;49.20;;;7.50;;
48629;SDS011;34426;52.180;4.462;2023-02-18T07:16:26;53.65;;;7.00;;
48629;SDS011;34426;52.180;4.462;2023-02-18T07:18:54;56.65;;;7.63;;
48629;SDS011;34426;52.180;4.462;2023-02-18T07:21:23;42.33;;;7.20;;
48629;SDS011;34426;52.180;4.462;2023-02-18T07:23:50;43.25;;;7.35;;
48629;SDS011;34426;52.180;4.462;2023-02-18T07:26:18;44.45;;;6.55;;
48629;SDS011;34426;52.180;4.462;2023-02-18T07:28:45;49.05;;;7.35;;
48629;SDS011;34426;52.180;4.462;2023-02-18T07:31:12;59.03;;;8.43;;
48629;SDS011;34426;52.180;4.462;2023-02-18T07:33:39;61.80;;;8.95;;
48629;SDS011;34426;52.180;4.462;2023-02-18T07:36:07;53.92;;;7.03;;
48629;SDS011;34426;52.180;4.462;2023-02-18T07:38:36;62.97;;;8.88;;
48629;SDS011;34426;52.180;4.462;2023-02-18T07:41:04;53.38;;;7.05;;
48629;SDS011;34426;52.180;4.462;2023-02-18T07:43:31;55.83;;;7.85;;
48629;SDS011;34426;52.180;4.462;2023-02-18T07:45:59;58.42;;;9.38;;
48629;SDS011;34426;52.180;4.462;2023-02-18T07:48:30;52.03;;;7.88;;
48629;SDS011;34426;52.180;4.462;2023-02-18T07:50:56;58.33;;;7.78;;
48629;SDS011;34426;52.180;4.462;2023-02-18T07:53:22;57.88;;;7.43;;
48629;SDS011;34426;52.180;4.462;2023-02-18T07:55:52;55.63;;;7.38;;
48629;SDS011;34426;52.180;4.462;2023-02-18T07:58:20;51.88;;;7.72;;
48629;SDS011;34426;52.180;4.462;2023-02-18T08:00:47;53.83;;;7.78;;
48629;SDS011;34426;52.180;4.462;2023-02-18T08:03:16;63.08;;;9.77;;
48629;SDS011;34426;52.180;4.462;2023-02-18T08:05:44;54.15;;;7.15;;
48629;SDS011;34426;52.180;4.462;2023-02-18T08:08:12;58.40;;;8.40;;
48629;SDS011;34426;52.180;4.462;2023-02-18T08:10:41;46.88;;;7.22;;
48629;SDS011;34426;52.180;4.462;2023-02-18T08:13:10;58.03;;;8.48;;
48629;SDS011;34426;52.180;4.462;2023-02-18T08:15:38;49.85;;;8.02;;
48629;SDS011;34426;52.180;4.462;2023-02-18T08:18:05;59.08;;;7.88;;
48629;SDS011;34426;52.180;4.462;2023-02-18T08:20:35;53.22;;;6.90;;
48629;SDS011;34426;52.180;4.462;2023-02-18T08:23:03;58.28;;;7.57;;
48629;SDS011;34426;52.180;4.462;2023-02-18T08:25:31;62.72;;;8.02;;
48629;SDS011;34426;52.180;4.462;2023-02-18T08:27:58;44.53;;;7.30;;
48629;SDS011;34426;52.180;4.462;2023-02-18T08:30:27;54.15;;;6.30;;
48629;SDS011;34426;52.180;4.462;2023-02-18T08:32:54;49.95;;;6.78;;
48629;SDS011;34426;52.180;4.462;2023-02-18T08:35:22;48.05;;;7.28;;
48629;SDS011;34426;52.180;4.462;2023-02-18T08:37:49;46.53;;;6.93;;
48629;SDS011;34426;52.180;4.462;2023-02-18T08:40:17;53.35;;;6.80;;
48629;SDS011;34426;52.180;4.462;2023-02-18T08:42:45;54.83;;;7.47;;
48629;SDS011;34426;52.180;4.462;2023-02-18T08:45:12;69.43;;;9.45;;
48629;SDS011;34426;52.180;4.462;2023-02-18T08:47:41;47.13;;;7.85;;
48629;SDS011;34426;52.180;4.462;2023-02-18T08:50:08;54.53;;;8.48;;
48629;SDS011;34426;52.180;4.462;2023-02-18T08:52:35;65.28;;;8.18;;
48629;SDS011;34426;52.180;4.462;2023-02-18T08:55:03;57.47;;;7.63;;
48629;SDS011;34426;52.180;4.462;2023-02-18T08:57:30;61.08;;;8.45;;
48629;SDS011;34426;52.180;4.462;2023-02-18T08:59:58;41.58;;;6.68;;
48629;SDS011;34426;52.180;4.462;2023-02-18T09:02:25;52.28;;;8.90;;
48629;SDS011;34426;52.180;4.462;2023-02-18T09:04:55;46.85;;;6.90;;
48629;SDS011;34426;52.180;4.462;2023-02-18T09:07:22;56.95;;;8.70;;
48629;SDS011;34426;52.180;4.462;2023-02-18T09:09:50;59.95;;;9.55;;
48629;SDS011;34426;52.180;4.462;2023-02-18T09:12:18;56.30;;;8.98;;
48629;SDS011;34426;52.180;4.462;2023-02-18T09:14:46;62.25;;;8.48;;
48629;SDS011;34426;52.180;4.462;2023-02-18T09:17:14;53.58;;;7.50;;
48629;SDS011;34426;52.180;4.462;2023-02-18T09:19:41;61.83;;;8.60;;
48629;SDS011;34426;52.180;4.462;2023-02-18T09:22:10;52.05;;;8.20;;
48629;SDS011;34426;52.180;4.462;2023-02-18T09:24:38;53.67;;;7.88;;
48629;SDS011;34426;52.180;4.462;2023-02-18T09:27:06;58.42;;;8.15;;
48629;SDS011;34426;52.180;4.462;2023-02-18T09:29:36;49.35;;;7.78;;
48629;SDS011;34426;52.180;4.462;2023-02-18T09:32:05;62.42;;;8.73;;
48629;SDS011;34426;52.180;4.462;2023-02-18T09:34:32;74.50;;;9.73;;
48629;SDS011;34426;52.180;4.462;2023-02-18T09:37:04;53.00;;;8.98;;
48629;SDS011;34426;52.180;4.462;2023-02-18T09:39:33;56.30;;;8.48;;
48629;SDS011;34426;52.180;4.462;2023-02-18T09:42:01;62.83;;;8.32;;
48629;SDS011;34426;52.180;4.462;2023-02-18T09:44:32;60.72;;;8.70;;
48629;SDS011;34426;52.180;4.462;2023-02-18T09:47:04;61.13;;;9.00;;
48629;SDS011;34426;52.180;4.462;2023-02-18T09:49:37;65.90;;;9.68;;
48629;SDS011;34426;52.180;4.462;2023-02-18T09:52:11;50.15;;;8.70;;
48629;SDS011;34426;52.180;4.462;2023-02-18T09:54:52;73.97;;;10.55;;
48629;SDS011;34426;52.180;4.462;2023-02-18T09:57:21;59.80;;;8.32;;
48629;SDS011;34426;52.180;4.462;2023-02-18T09:59:52;59.37;;;8.67;;
48629;SDS011;34426;52.180;4.462;2023-02-18T10:02:24;61.30;;;8.32;;
48629;SDS011;34426;52.180;4.462;2023-02-18T10:04:53;55.22;;;9.02;;
48629;SDS011;34426;52.180;4.462;2023-02-18T10:07:22;57.38;;;8.93;;
48629;SDS011;34426;52.180;4.462;2023-02-18T10:09:54;50.60;;;7.80;;
48629;SDS011;34426;52.180;4.462;2023-02-18T10:12:28;56.78;;;8.55;;
48629;SDS011;34426;52.180;4.462;2023-02-18T10:14:58;45.70;;;7.53;;
48629;SDS011;34426;52.180;4.462;2023-02-18T10:17:26;59.03;;;7.55;;
48629;SDS011;34426;52.180;4.462;2023-02-18T10:19:56;66.13;;;8.60;;
48629;SDS011;34426;52.180;4.462;2023-02-18T10:22:25;61.72;;;8.90;;
48629;SDS011;34426;52.180;4.462;2023-02-18T10:24:55;57.05;;;8.90;;
48629;SDS011;34426;52.180;4.462;2023-02-18T10:27:26;47.15;;;7.50;;
48629;SDS011;34426;52.180;4.462;2023-02-18T10:29:55;58.95;;;9.05;;
48629;SDS011;34426;52.180;4.462;2023-02-18T10:32:33;54.85;;;7.90;;
48629;SDS011;34426;52.180;4.462;2023-02-18T10:35:06;57.65;;;7.50;;
48629;SDS011;34426;52.180;4.462;2023-02-18T10:37:45;46.65;;;7.32;;
48629;SDS011;34426;52.180;4.462;2023-02-18T10:40:21;45.30;;;7.53;;
48629;SDS011;34426;52.180;4.462;2023-02-18T10:42:59;48.60;;;7.63;;
48629;SDS011;34426;52.180;4.462;2023-02-18T10:45:39;44.40;;;7.55;;
48629;SDS011;34426;52.180;4.462;2023-02-18T10:48:17;51.85;;;7.47;;
48629;SDS011;34426;52.180;4.462;2023-02-18T10:51:05;53.92;;;6.45;;
48629;SDS011;34426;52.180;4.462;2023-02-18T10:53:40;44.38;;;6.30;;
48629;SDS011;34426;52.180;4.462;2023-02-18T10:56:28;37.40;;;6.88;;
48629;SDS011;34426;52.180;4.462;2023-02-18T10:59:00;39.33;;;6.10;;
48629;SDS011;34426;52.180;4.462;2023-02-18T11:01:34;45.88;;;6.47;;
48629;SDS011;34426;52.180;4.462;2023-02-18T11:04:06;39.97;;;7.38;;
48629;SDS011;34426;52.180;4.462;2023-02-18T11:06:38;47.30;;;7.75;;
48629;SDS011;34426;52.180;4.462;2023-02-18T11:09:10;48.90;;;6.32;;
48629;SDS011;34426;52.180;4.462;2023-02-18T11:12:01;49.28;;;8.07;;
48629;SDS011;34426;52.180;4.462;2023-02-18T11:14:36;53.85;;;7.13;;
48629;SDS011;34426;52.180;4.462;2023-02-18T11:19:57;45.08;;;6.65;;
48629;SDS011;34426;52.180;4.462;2023-02-18T11:22:27;43.03;;;6.28;;
48629;SDS011;34426;52.180;4.462;2023-02-18T11:24:56;43.17;;;5.97;;
48629;SDS011;34426;52.180;4.462;2023-02-18T11:27:27;40.63;;;6.50;;
48629;SDS011;34426;52.180;4.462;2023-02-18T11:30:03;35.90;;;5.20;;
48629;SDS011;34426;52.180;4.462;2023-02-18T11:32:33;42.90;;;6.13;;
48629;SDS011;34426;52.180;4.462;2023-02-18T11:35:01;38.42;;;5.60;;
48629;SDS011;34426;52.180;4.462;2023-02-18T11:37:30;44.92;;;6.68;;
48629;SDS011;34426;52.180;4.462;2023-02-18T11:40:00;40.55;;;6.03;;
48629;SDS011;34426;52.180;4.462;2023-02-18T11:42:31;31.20;;;4.97;;
48629;SDS011;34426;52.180;4.462;2023-02-18T11:44:59;46.53;;;6.53;;
48629;SDS011;34426;52.180;4.462;2023-02-18T11:47:27;43.13;;;6.97;;
48629;SDS011;34426;52.180;4.462;2023-02-18T11:49:59;43.00;;;6.07;;
48629;SDS011;34426;52.180;4.462;2023-02-18T11:52:32;33.55;;;5.50;;
48629;SDS011;34426;52.180;4.462;2023-02-18T11:55:01;34.85;;;5.82;;
48629;SDS011;34426;52.180;4.462;2023-02-18T11:57:32;36.10;;;4.72;;
48629;SDS011;34426;52.180;4.462;2023-02-18T12:00:02;24.45;;;4.28;;
48629;SDS011;34426;52.180;4.462;2023-02-18T12:02:31;37.08;;;5.28;;
48629;SDS011;34426;52.180;4.462;2023-02-18T12:05:01;31.55;;;4.63;;
48629;SDS011;34426;52.180;4.462;2023-02-18T12:07:40;29.65;;;5.10;;
48629;SDS011;34426;52.180;4.462;2023-02-18T12:10:10;36.00;;;5.65;;
48629;SDS011;34426;52.180;4.462;2023-02-18T12:12:43;29.15;;;4.32;;
48629;SDS011;34426;52.180;4.462;2023-02-18T12:15:13;39.50;;;5.93;;
48629;SDS011;34426;52.180;4.462;2023-02-18T12:17:49;31.00;;;4.90;;
48629;SDS011;34426;52.180;4.462;2023-02-18T12:20:35;30.80;;;4.53;;
48629;SDS011;34426;52.180;4.462;2023-02-18T12:23:20;29.33;;;5.45;;
48629;SDS011;34426;52.180;4.462;2023-02-18T12:25:53;28.98;;;5.18;;
48629;SDS011;34426;52.180;4.462;2023-02-18T12:28:33;36.58;;;4.93;;
48629;SDS011;34426;52.180;4.462;2023-02-18T12:31:24;31.77;;;4.78;;
48629;SDS011;34426;52.180;4.462;2023-02-18T12:37:30;29.00;;;4.68;;
48629;SDS011;34426;52.180;4.462;2023-02-18T12:40:26;39.40;;;5.47;;
48629;SDS011;34426;52.180;4.462;2023-02-18T12:43:14;31.05;;;4.40;;
48629;SDS011;34426;52.180;4.462;2023-02-18T12:48:55;41.80;;;6.10;;
48629;SDS011;34426;52.180;4.462;2023-02-18T12:51:38;32.47;;;5.22;;
48629;SDS011;34426;52.180;4.462;2023-02-18T12:54:20;29.67;;;4.60;;
48629;SDS011;34426;52.180;4.462;2023-02-18T12:57:02;32.15;;;4.65;;
48629;SDS011;34426;52.180;4.462;2023-02-18T12:59:51;27.48;;;4.78;;
48629;SDS011;34426;52.180;4.462;2023-02-18T13:02:41;40.13;;;5.63;;
48629;SDS011;34426;52.180;4.462;2023-02-18T13:05:29;27.08;;;4.32;;
48629;SDS011;34426;52.180;4.462;2023-02-18T13:08:06;31.05;;;4.93;;
48629;SDS011;34426;52.180;4.462;2023-02-18T13:10:57;29.17;;;4.72;;
48629;SDS011;34426;52.180;4.462;2023-02-18T13:13:46;26.98;;;4.72;;
48629;SDS011;34426;52.180;4.462;2023-02-18T13:16:20;39.22;;;5.80;;
48629;SDS011;34426;52.180;4.462;2023-02-18T13:18:49;39.90;;;5.38;;
48629;SDS011;34426;52.180;4.462;2023-02-18T13:21:26;31.00;;;4.93;;
48629;SDS011;34426;52.180;4.462;2023-02-18T13:23:56;37.10;;;4.95;;
48629;SDS011;34426;52.180;4.462;2023-02-18T13:26:26;26.83;;;4.53;;
48629;SDS011;34426;52.180;4.462;2023-02-18T13:29:01;27.63;;;4.32;;
48629;SDS011;34426;52.180;4.462;2023-02-18T13:31:39;36.65;;;5.70;;
48629;SDS011;34426;52.180;4.462;2023-02-18T13:34:18;31.55;;;4.20;;
48629;SDS011;34426;52.180;4.462;2023-02-18T13:36:55;32.03;;;4.65;;
48629;SDS011;34426;52.180;4.462;2023-02-18T13:39:30;28.98;;;4.35;;
48629;SDS011;34426;52.180;4.462;2023-02-18T13:47:54;32.45;;;5.72;;
48629;SDS011;34426;52.180;4.462;2023-02-18T13:50:24;35.55;;;4.97;;
48629;SDS011;34426;52.180;4.462;2023-02-18T13:53:18;33.45;;;5.45;;
48629;SDS011;34426;52.180;4.462;2023-02-18T13:55:54;37.55;;;5.80;;
48629;SDS011;34426;52.180;4.462;2023-02-18T13:58:27;34.13;;;4.90;;
48629;SDS011;34426;52.180;4.462;2023-02-18T14:01:00;28.33;;;4.00;;
48629;SDS011;34426;52.180;4.462;2023-02-18T14:03:34;23.27;;;4.63;;
48629;SDS011;34426;52.180;4.462;2023-02-18T14:06:16;38.35;;;5.28;;
48629;SDS011;34426;52.180;4.462;2023-02-18T14:08:46;33.25;;;5.78;;
48629;SDS011;34426;52.180;4.462;2023-02-18T14:11:24;42.42;;;6.38;;
48629;SDS011;34426;52.180;4.462;2023-02-18T14:14:13;33.00;;;4.65;;
48629;SDS011;34426;52.180;4.462;2023-02-18T14:19:59;30.25;;;4.75;;
48629;SDS011;34426;52.180;4.462;2023-02-18T14:26:16;31.15;;;7.10;;
48629;SDS011;34426;52.180;4.462;2023-02-18T14:28:49;32.55;;;6.50;;
48629;SDS011;34426;52.180;4.462;2023-02-18T14:31:26;37.95;;;5.20;;
48629;SDS011;34426;52.180;4.462;2023-02-18T14:37:00;37.55;;;6.35;;
48629;SDS011;34426;52.180;4.462;2023-02-18T14:39:42;35.38;;;6.53;;
48629;SDS011;34426;52.180;4.462;2023-02-18T14:42:21;34.85;;;5.78;;
48629;SDS011;34426;52.180;4.462;2023-02-18T14:45:01;41.25;;;5.20;;
48629;SDS011;34426;52.180;4.462;2023-02-18T14:47:38;41.83;;;6.03;;
48629;SDS011;34426;52.180;4.462;2023-02-18T14:50:18;34.05;;;5.30;;
48629;SDS011;34426;52.180;4.462;2023-02-18T14:52:48;33.85;;;5.43;;
48629;SDS011;34426;52.180;4.462;2023-02-18T14:55:19;33.53;;;4.95;;
48629;SDS011;34426;52.180;4.462;2023-02-18T14:57:53;35.30;;;5.63;;
48629;SDS011;34426;52.180;4.462;2023-02-18T15:00:25;36.45;;;5.70;;
48629;SDS011;34426;52.180;4.462;2023-02-18T15:02:54;36.25;;;6.57;;
48629;SDS011;34426;52.180;4.462;2023-02-18T15:05:22;39.63;;;6.03;;
48629;SDS011;34426;52.180;4.462;2023-02-18T15:07:54;38.15;;;6.38;;
48629;SDS011;34426;52.180;4.462;2023-02-18T15:10:27;30.50;;;5.05;;
48629;SDS011;34426;52.180;4.462;2023-02-18T15:13:07;35.03;;;5.32;;
48629;SDS011;34426;52.180;4.462;2023-02-18T15:15:38;32.80;;;5.47;;
48629;SDS011;34426;52.180;4.462;2023-02-18T15:18:11;34.22;;;5.40;;
48629;SDS011;34426;52.180;4.462;2023-02-18T15:20:46;42.65;;;6.28;;
48629;SDS011;34426;52.180;4.462;2023-02-18T15:23:14;44.50;;;7.00;;